sensor_id;sensor_type;location;lat;lon;timestamp;P1;durP1;ratioP1;P2;durP2;ratioP2
67195;SDS011;54122;53.538;49.366;2023-09-12T00:00:57;5.82;;;2.63;;
67195;SDS011;54122;53.538;49.366;2023-09-12T00:03:24;5.25;;;2.45;;
67195;SDS011;54122;53.538;49.366;2023-09-12T00:05:51;4.15;;;2.85;;
67195;SDS011;54122;53.538;49.366;2023-09-12T00:08:18;5.95;;;2.20;;
67195;SDS011;54122;53.538;49.366;2023-09-12T00:10:44;3.05;;;2.05;;
67195;SDS011;54122;53.538;49.366;2023-09-12T00:13:11;3.40;;;2.40;;
67195;SDS011;54122;53.538;49.366;2023-09-12T00:15:37;6.47;;;2.10;;
67195;SDS011;54122;53.538;49.366;2023-09-12T00:18:04;6.47;;;2.63;;
67195;SDS011;54122;53.538;49.366;2023-09-12T00:20:31;4.18;;;2.53;;
67195;SDS011;54122;53.538;49.366;2023-09-12T00:22:57;11.15;;;3.03;;
67195;SDS011;54122;53.538;49.366;2023-09-12T00:25:23;4.78;;;2.00;;
67195;SDS011;54122;53.538;49.366;2023-09-12T00:27:50;6.40;;;2.47;;
67195;SDS011;54122;53.538;49.366;2023-09-12T00:30:16;4.45;;;2.88;;
67195;SDS011;54122;53.538;49.366;2023-09-12T00:32:42;3.55;;;2.55;;
67195;SDS011;54122;53.538;49.366;2023-09-12T00:35:09;6.72;;;2.53;;
67195;SDS011;54122;53.538;49.366;2023-09-12T00:37:35;3.35;;;2.28;;
67195;SDS011;54122;53.538;49.366;2023-09-12T00:40:02;5.25;;;2.78;;
67195;SDS011;54122;53.538;49.366;2023-09-12T00:42:28;4.55;;;2.55;;
67195;SDS011;54122;53.538;49.366;2023-09-12T00:44:55;7.03;;;2.42;;
67195;SDS011;54122;53.538;49.366;2023-09-12T00:47:21;5.90;;;2.50;;
67195;SDS011;54122;53.538;49.366;2023-09-12T00:49:49;4.20;;;2.45;;
67195;SDS011;54122;53.538;49.366;2023-09-12T00:52:16;3.78;;;2.28;;
67195;SDS011;54122;53.538;49.366;2023-09-12T00:54:45;3.53;;;2.50;;
67195;SDS011;54122;53.538;49.366;2023-09-12T00:57:11;5.25;;;2.88;;
67195;SDS011;54122;53.538;49.366;2023-09-12T00:59:38;5.32;;;2.83;;
67195;SDS011;54122;53.538;49.366;2023-09-12T01:02:05;5.10;;;3.03;;
67195;SDS011;54122;53.538;49.366;2023-09-12T01:04:32;6.40;;;3.00;;
67195;SDS011;54122;53.538;49.366;2023-09-12T01:06:58;4.35;;;2.67;;
67195;SDS011;54122;53.538;49.366;2023-09-12T01:09:25;7.07;;;2.90;;
67195;SDS011;54122;53.538;49.366;2023-09-12T01:11:51;6.93;;;3.45;;
67195;SDS011;54122;53.538;49.366;2023-09-12T01:14:17;3.85;;;2.85;;
67195;SDS011;54122;53.538;49.366;2023-09-12T01:16:44;5.93;;;2.75;;
67195;SDS011;54122;53.538;49.366;2023-09-12T01:19:10;9.07;;;3.05;;
67195;SDS011;54122;53.538;49.366;2023-09-12T01:30:04;9.85;;;3.33;;
67195;SDS011;54122;53.538;49.366;2023-09-12T01:32:32;5.93;;;3.28;;
67195;SDS011;54122;53.538;49.366;2023-09-12T01:34:59;5.93;;;3.13;;
67195;SDS011;54122;53.538;49.366;2023-09-12T01:37:25;6.03;;;3.22;;
67195;SDS011;54122;53.538;49.366;2023-09-12T01:39:52;17.27;;;3.40;;
67195;SDS011;54122;53.538;49.366;2023-09-12T01:42:18;6.10;;;3.85;;
67195;SDS011;54122;53.538;49.366;2023-09-12T01:44:47;7.82;;;3.40;;
67195;SDS011;54122;53.538;49.366;2023-09-12T01:47:19;6.20;;;3.42;;
67195;SDS011;54122;53.538;49.366;2023-09-12T01:49:49;6.82;;;3.25;;
67195;SDS011;54122;53.538;49.366;2023-09-12T01:52:19;5.50;;;3.35;;
67195;SDS011;54122;53.538;49.366;2023-09-12T01:54:45;9.52;;;4.35;;
67195;SDS011;54122;53.538;49.366;2023-09-12T01:57:13;4.85;;;2.75;;
67195;SDS011;54122;53.538;49.366;2023-09-12T01:59:40;4.32;;;2.80;;
67195;SDS011;54122;53.538;49.366;2023-09-12T02:02:06;4.43;;;2.70;;
67195;SDS011;54122;53.538;49.366;2023-09-12T02:04:33;4.75;;;3.20;;
67195;SDS011;54122;53.538;49.366;2023-09-12T02:06:59;10.05;;;4.03;;
67195;SDS011;54122;53.538;49.366;2023-09-12T02:09:25;9.82;;;3.55;;
67195;SDS011;54122;53.538;49.366;2023-09-12T02:11:51;9.05;;;4.10;;
67195;SDS011;54122;53.538;49.366;2023-09-12T02:14:17;6.75;;;3.00;;
67195;SDS011;54122;53.538;49.366;2023-09-12T02:16:43;8.88;;;3.90;;
67195;SDS011;54122;53.538;49.366;2023-09-12T02:19:10;4.72;;;3.60;;
67195;SDS011;54122;53.538;49.366;2023-09-12T02:21:36;10.13;;;3.17;;
67195;SDS011;54122;53.538;49.366;2023-09-12T02:24:02;7.93;;;3.13;;
67195;SDS011;54122;53.538;49.366;2023-09-12T02:26:28;5.68;;;3.13;;
67195;SDS011;54122;53.538;49.366;2023-09-12T02:28:55;4.68;;;3.17;;
67195;SDS011;54122;53.538;49.366;2023-09-12T02:31:21;7.53;;;3.83;;
67195;SDS011;54122;53.538;49.366;2023-09-12T02:33:48;6.15;;;3.13;;
67195;SDS011;54122;53.538;49.366;2023-09-12T02:36:14;8.95;;;3.05;;
67195;SDS011;54122;53.538;49.366;2023-09-12T02:38:40;7.85;;;3.20;;
67195;SDS011;54122;53.538;49.366;2023-09-12T02:41:06;5.78;;;3.22;;
67195;SDS011;54122;53.538;49.366;2023-09-12T02:43:32;8.68;;;3.92;;
67195;SDS011;54122;53.538;49.366;2023-09-12T02:45:58;8.40;;;3.33;;
67195;SDS011;54122;53.538;49.366;2023-09-12T02:48:24;6.72;;;3.83;;
67195;SDS011;54122;53.538;49.366;2023-09-12T02:50:50;7.10;;;3.03;;
67195;SDS011;54122;53.538;49.366;2023-09-12T02:53:16;7.72;;;3.85;;
67195;SDS011;54122;53.538;49.366;2023-09-12T02:55:42;7.70;;;3.53;;
67195;SDS011;54122;53.538;49.366;2023-09-12T02:58:09;7.07;;;4.07;;
67195;SDS011;54122;53.538;49.366;2023-09-12T03:00:38;11.10;;;3.90;;
67195;SDS011;54122;53.538;49.366;2023-09-12T03:03:08;7.05;;;3.17;;
67195;SDS011;54122;53.538;49.366;2023-09-12T03:05:35;8.68;;;4.10;;
67195;SDS011;54122;53.538;49.366;2023-09-12T03:08:01;6.47;;;3.63;;
67195;SDS011;54122;53.538;49.366;2023-09-12T03:10:29;6.63;;;3.78;;
67195;SDS011;54122;53.538;49.366;2023-09-12T03:12:55;8.63;;;3.42;;
67195;SDS011;54122;53.538;49.366;2023-09-12T03:15:21;25.98;;;3.72;;
67195;SDS011;54122;53.538;49.366;2023-09-12T03:17:47;8.13;;;3.15;;
67195;SDS011;54122;53.538;49.366;2023-09-12T03:20:13;13.43;;;3.33;;
67195;SDS011;54122;53.538;49.366;2023-09-12T03:22:39;6.97;;;3.72;;
67195;SDS011;54122;53.538;49.366;2023-09-12T03:25:06;5.90;;;3.20;;
67195;SDS011;54122;53.538;49.366;2023-09-12T03:27:32;6.50;;;2.85;;
67195;SDS011;54122;53.538;49.366;2023-09-12T03:29:59;6.32;;;3.15;;
67195;SDS011;54122;53.538;49.366;2023-09-12T03:32:25;6.15;;;3.15;;
67195;SDS011;54122;53.538;49.366;2023-09-12T03:34:51;5.03;;;2.53;;
67195;SDS011;54122;53.538;49.366;2023-09-12T03:37:17;6.45;;;3.10;;
67195;SDS011;54122;53.538;49.366;2023-09-12T03:39:43;7.80;;;3.50;;
67195;SDS011;54122;53.538;49.366;2023-09-12T03:42:09;4.43;;;2.70;;
67195;SDS011;54122;53.538;49.366;2023-09-12T03:44:35;5.40;;;3.42;;
67195;SDS011;54122;53.538;49.366;2023-09-12T03:47:04;5.03;;;2.58;;
67195;SDS011;54122;53.538;49.366;2023-09-12T03:49:30;6.60;;;2.55;;
67195;SDS011;54122;53.538;49.366;2023-09-12T03:51:56;4.47;;;2.97;;
67195;SDS011;54122;53.538;49.366;2023-09-12T03:54:22;6.13;;;2.90;;
67195;SDS011;54122;53.538;49.366;2023-09-12T03:56:48;3.95;;;2.03;;
67195;SDS011;54122;53.538;49.366;2023-09-12T03:59:14;3.50;;;2.08;;
67195;SDS011;54122;53.538;49.366;2023-09-12T04:01:40;5.38;;;3.25;;
67195;SDS011;54122;53.538;49.366;2023-09-12T04:04:06;5.38;;;3.20;;
67195;SDS011;54122;53.538;49.366;2023-09-12T04:06:32;5.00;;;2.55;;
67195;SDS011;54122;53.538;49.366;2023-09-12T04:08:59;4.97;;;2.58;;
67195;SDS011;54122;53.538;49.366;2023-09-12T04:11:25;4.47;;;2.80;;
67195;SDS011;54122;53.538;49.366;2023-09-12T04:13:51;8.63;;;3.13;;
67195;SDS011;54122;53.538;49.366;2023-09-12T04:16:17;3.80;;;2.55;;
67195;SDS011;54122;53.538;49.366;2023-09-12T04:18:44;8.80;;;2.85;;
67195;SDS011;54122;53.538;49.366;2023-09-12T04:21:10;5.10;;;2.92;;
67195;SDS011;54122;53.538;49.366;2023-09-12T04:23:36;4.15;;;2.70;;
67195;SDS011;54122;53.538;49.366;2023-09-12T04:26:02;4.10;;;2.53;;
67195;SDS011;54122;53.538;49.366;2023-09-12T04:28:28;5.03;;;2.60;;
67195;SDS011;54122;53.538;49.366;2023-09-12T04:31:02;5.65;;;2.13;;
67195;SDS011;54122;53.538;49.366;2023-09-12T04:33:29;4.15;;;2.13;;
67195;SDS011;54122;53.538;49.366;2023-09-12T04:35:57;3.33;;;1.85;;
67195;SDS011;54122;53.538;49.366;2023-09-12T04:38:25;7.88;;;1.92;;
67195;SDS011;54122;53.538;49.366;2023-09-12T04:40:56;3.72;;;1.88;;
67195;SDS011;54122;53.538;49.366;2023-09-12T04:43:23;3.28;;;1.55;;
67195;SDS011;54122;53.538;49.366;2023-09-12T04:45:49;7.65;;;1.85;;
67195;SDS011;54122;53.538;49.366;2023-09-12T04:48:16;8.73;;;1.73;;
67195;SDS011;54122;53.538;49.366;2023-09-12T04:50:42;2.55;;;1.80;;
67195;SDS011;54122;53.538;49.366;2023-09-12T04:53:08;3.00;;;1.60;;
67195;SDS011;54122;53.538;49.366;2023-09-12T04:55:35;2.50;;;1.63;;
67195;SDS011;54122;53.538;49.366;2023-09-12T04:58:02;5.85;;;1.77;;
67195;SDS011;54122;53.538;49.366;2023-09-12T05:00:30;3.78;;;1.85;;
67195;SDS011;54122;53.538;49.366;2023-09-12T05:02:57;3.42;;;1.83;;
67195;SDS011;54122;53.538;49.366;2023-09-12T05:05:23;2.65;;;1.77;;
67195;SDS011;54122;53.538;49.366;2023-09-12T05:07:50;2.75;;;1.60;;
67195;SDS011;54122;53.538;49.366;2023-09-12T05:10:19;4.35;;;2.35;;
67195;SDS011;54122;53.538;49.366;2023-09-12T05:12:45;3.80;;;2.00;;
67195;SDS011;54122;53.538;49.366;2023-09-12T05:15:11;3.45;;;1.95;;
67195;SDS011;54122;53.538;49.366;2023-09-12T05:17:38;2.88;;;1.75;;
67195;SDS011;54122;53.538;49.366;2023-09-12T05:20:04;4.03;;;1.92;;
67195;SDS011;54122;53.538;49.366;2023-09-12T05:22:31;2.95;;;1.80;;
67195;SDS011;54122;53.538;49.366;2023-09-12T05:24:57;2.75;;;1.85;;
67195;SDS011;54122;53.538;49.366;2023-09-12T05:27:24;3.83;;;2.08;;
67195;SDS011;54122;53.538;49.366;2023-09-12T05:29:50;5.97;;;2.08;;
67195;SDS011;54122;53.538;49.366;2023-09-12T05:32:16;5.13;;;1.80;;
67195;SDS011;54122;53.538;49.366;2023-09-12T05:34:43;2.35;;;1.58;;
67195;SDS011;54122;53.538;49.366;2023-09-12T05:37:10;2.63;;;1.52;;
67195;SDS011;54122;53.538;49.366;2023-09-12T05:39:37;4.40;;;1.63;;
67195;SDS011;54122;53.538;49.366;2023-09-12T05:42:03;3.70;;;1.80;;
67195;SDS011;54122;53.538;49.366;2023-09-12T05:44:30;1.77;;;1.10;;
67195;SDS011;54122;53.538;49.366;2023-09-12T05:46:57;3.10;;;1.35;;
67195;SDS011;54122;53.538;49.366;2023-09-12T05:49:26;3.90;;;1.65;;
67195;SDS011;54122;53.538;49.366;2023-09-12T05:51:53;5.20;;;1.52;;
67195;SDS011;54122;53.538;49.366;2023-09-12T05:54:19;2.42;;;1.55;;
67195;SDS011;54122;53.538;49.366;2023-09-12T05:56:46;4.28;;;1.35;;
67195;SDS011;54122;53.538;49.366;2023-09-12T05:59:13;5.93;;;1.45;;
67195;SDS011;54122;53.538;49.366;2023-09-12T06:01:40;1.88;;;1.45;;
67195;SDS011;54122;53.538;49.366;2023-09-12T06:04:06;3.50;;;1.92;;
67195;SDS011;54122;53.538;49.366;2023-09-12T06:06:33;1.98;;;1.23;;
67195;SDS011;54122;53.538;49.366;2023-09-12T06:08:59;3.60;;;1.63;;
67195;SDS011;54122;53.538;49.366;2023-09-12T06:11:26;2.15;;;1.50;;
67195;SDS011;54122;53.538;49.366;2023-09-12T06:13:52;2.92;;;1.40;;
67195;SDS011;54122;53.538;49.366;2023-09-12T06:16:18;2.03;;;1.45;;
67195;SDS011;54122;53.538;49.366;2023-09-12T06:18:45;1.77;;;1.33;;
67195;SDS011;54122;53.538;49.366;2023-09-12T06:21:11;3.70;;;1.63;;
67195;SDS011;54122;53.538;49.366;2023-09-12T06:23:37;2.58;;;1.67;;
67195;SDS011;54122;53.538;49.366;2023-09-12T06:26:04;2.15;;;1.30;;
67195;SDS011;54122;53.538;49.366;2023-09-12T06:28:30;1.42;;;1.10;;
67195;SDS011;54122;53.538;49.366;2023-09-12T06:30:57;1.20;;;0.98;;
67195;SDS011;54122;53.538;49.366;2023-09-12T06:33:24;1.92;;;1.13;;
67195;SDS011;54122;53.538;49.366;2023-09-12T06:35:52;2.80;;;0.88;;
67195;SDS011;54122;53.538;49.366;2023-09-12T06:38:19;1.52;;;1.10;;
67195;SDS011;54122;53.538;49.366;2023-09-12T06:40:46;1.58;;;0.90;;
67195;SDS011;54122;53.538;49.366;2023-09-12T06:43:13;1.75;;;1.00;;
67195;SDS011;54122;53.538;49.366;2023-09-12T06:45:43;2.40;;;1.17;;
67195;SDS011;54122;53.538;49.366;2023-09-12T06:48:09;1.00;;;0.70;;
67195;SDS011;54122;53.538;49.366;2023-09-12T06:50:36;1.73;;;1.00;;
67195;SDS011;54122;53.538;49.366;2023-09-12T06:53:04;2.25;;;0.82;;
67195;SDS011;54122;53.538;49.366;2023-09-12T06:55:35;1.58;;;1.00;;
67195;SDS011;54122;53.538;49.366;2023-09-12T06:58:03;3.53;;;0.95;;
67195;SDS011;54122;53.538;49.366;2023-09-12T07:00:29;3.05;;;1.08;;
67195;SDS011;54122;53.538;49.366;2023-09-12T07:02:57;2.80;;;0.80;;
67195;SDS011;54122;53.538;49.366;2023-09-12T07:05:23;2.42;;;1.20;;
67195;SDS011;54122;53.538;49.366;2023-09-12T07:07:50;1.52;;;1.10;;
67195;SDS011;54122;53.538;49.366;2023-09-12T07:10:17;1.77;;;1.05;;
67195;SDS011;54122;53.538;49.366;2023-09-12T07:12:43;1.52;;;1.08;;
67195;SDS011;54122;53.538;49.366;2023-09-12T07:15:10;2.80;;;1.20;;
67195;SDS011;54122;53.538;49.366;2023-09-12T07:17:36;2.15;;;1.35;;
67195;SDS011;54122;53.538;49.366;2023-09-12T07:20:03;1.95;;;1.00;;
67195;SDS011;54122;53.538;49.366;2023-09-12T07:22:30;1.35;;;1.05;;
67195;SDS011;54122;53.538;49.366;2023-09-12T07:24:59;2.25;;;1.73;;
67195;SDS011;54122;53.538;49.366;2023-09-12T07:27:26;2.92;;;1.35;;
67195;SDS011;54122;53.538;49.366;2023-09-12T07:29:54;2.10;;;1.10;;
67195;SDS011;54122;53.538;49.366;2023-09-12T07:32:21;2.38;;;1.08;;
67195;SDS011;54122;53.538;49.366;2023-09-12T07:34:48;3.20;;;1.30;;
67195;SDS011;54122;53.538;49.366;2023-09-12T07:37:14;1.67;;;1.10;;
67195;SDS011;54122;53.538;49.366;2023-09-12T07:39:41;2.58;;;1.10;;
67195;SDS011;54122;53.538;49.366;2023-09-12T07:42:07;1.85;;;1.17;;
67195;SDS011;54122;53.538;49.366;2023-09-12T07:44:33;2.15;;;1.23;;
67195;SDS011;54122;53.538;49.366;2023-09-12T07:47:00;2.75;;;1.20;;
67195;SDS011;54122;53.538;49.366;2023-09-12T07:49:27;1.70;;;1.10;;
67195;SDS011;54122;53.538;49.366;2023-09-12T07:51:54;1.17;;;0.98;;
67195;SDS011;54122;53.538;49.366;2023-09-12T07:54:23;1.98;;;1.20;;
67195;SDS011;54122;53.538;49.366;2023-09-12T07:56:49;1.88;;;1.13;;
67195;SDS011;54122;53.538;49.366;2023-09-12T07:59:15;1.20;;;1.00;;
67195;SDS011;54122;53.538;49.366;2023-09-12T08:01:42;1.80;;;1.30;;
67195;SDS011;54122;53.538;49.366;2023-09-12T08:04:08;6.28;;;1.38;;
67195;SDS011;54122;53.538;49.366;2023-09-12T08:06:35;1.25;;;0.98;;
67195;SDS011;54122;53.538;49.366;2023-09-12T08:09:01;1.73;;;1.30;;
67195;SDS011;54122;53.538;49.366;2023-09-12T08:11:28;3.15;;;1.60;;
67195;SDS011;54122;53.538;49.366;2023-09-12T08:13:54;2.88;;;1.70;;
67195;SDS011;54122;53.538;49.366;2023-09-12T08:16:20;2.60;;;1.40;;
67195;SDS011;54122;53.538;49.366;2023-09-12T08:18:47;1.50;;;1.40;;
67195;SDS011;54122;53.538;49.366;2023-09-12T08:21:14;3.28;;;1.25;;
67195;SDS011;54122;53.538;49.366;2023-09-12T08:23:40;3.05;;;1.00;;
67195;SDS011;54122;53.538;49.366;2023-09-12T08:26:08;2.75;;;1.42;;
67195;SDS011;54122;53.538;49.366;2023-09-12T08:28:36;1.60;;;1.08;;
67195;SDS011;54122;53.538;49.366;2023-09-12T08:31:02;2.72;;;1.10;;
67195;SDS011;54122;53.538;49.366;2023-09-12T08:33:29;3.15;;;1.20;;
67195;SDS011;54122;53.538;49.366;2023-09-12T08:35:56;4.15;;;1.42;;
67195;SDS011;54122;53.538;49.366;2023-09-12T08:38:22;6.57;;;1.60;;
67195;SDS011;54122;53.538;49.366;2023-09-12T08:40:49;3.10;;;1.10;;
67195;SDS011;54122;53.538;49.366;2023-09-12T08:43:16;2.22;;;1.15;;
67195;SDS011;54122;53.538;49.366;2023-09-12T08:45:43;1.10;;;0.90;;
67195;SDS011;54122;53.538;49.366;2023-09-12T08:48:10;2.20;;;1.30;;
67195;SDS011;54122;53.538;49.366;2023-09-12T08:50:38;1.55;;;1.08;;
67195;SDS011;54122;53.538;49.366;2023-09-12T08:53:05;6.80;;;1.40;;
67195;SDS011;54122;53.538;49.366;2023-09-12T08:55:31;2.97;;;0.90;;
67195;SDS011;54122;53.538;49.366;2023-09-12T08:58:02;5.50;;;1.30;;
67195;SDS011;54122;53.538;49.366;2023-09-12T09:00:29;5.15;;;1.40;;
67195;SDS011;54122;53.538;49.366;2023-09-12T09:02:56;1.80;;;1.33;;
67195;SDS011;54122;53.538;49.366;2023-09-12T09:05:23;2.47;;;1.10;;
67195;SDS011;54122;53.538;49.366;2023-09-12T09:07:50;3.95;;;1.23;;
67195;SDS011;54122;53.538;49.366;2023-09-12T09:10:18;1.50;;;1.02;;
67195;SDS011;54122;53.538;49.366;2023-09-12T09:12:45;2.58;;;1.40;;
67195;SDS011;54122;53.538;49.366;2023-09-12T09:17:53;2.95;;;1.52;;
67195;SDS011;54122;53.538;49.366;2023-09-12T09:20:21;3.42;;;1.33;;
67195;SDS011;54122;53.538;49.366;2023-09-12T09:25:34;1.67;;;1.13;;
67195;SDS011;54122;53.538;49.366;2023-09-12T09:28:04;1.48;;;1.10;;
67195;SDS011;54122;53.538;49.366;2023-09-12T09:33:06;5.65;;;1.90;;
67195;SDS011;54122;53.538;49.366;2023-09-12T09:35:33;1.83;;;1.40;;
67195;SDS011;54122;53.538;49.366;2023-09-12T09:38:00;3.08;;;1.40;;
67195;SDS011;54122;53.538;49.366;2023-09-12T09:40:28;2.80;;;1.60;;
67195;SDS011;54122;53.538;49.366;2023-09-12T09:42:55;2.75;;;1.63;;
67195;SDS011;54122;53.538;49.366;2023-09-12T09:45:26;2.17;;;1.35;;
67195;SDS011;54122;53.538;49.366;2023-09-12T09:47:56;1.80;;;1.48;;
67195;SDS011;54122;53.538;49.366;2023-09-12T09:50:34;2.53;;;1.35;;
67195;SDS011;54122;53.538;49.366;2023-09-12T09:53:02;3.35;;;1.63;;
67195;SDS011;54122;53.538;49.366;2023-09-12T09:55:31;1.88;;;1.00;;
67195;SDS011;54122;53.538;49.366;2023-09-12T09:58:06;3.58;;;1.35;;
67195;SDS011;54122;53.538;49.366;2023-09-12T10:00:36;1.85;;;1.35;;
67195;SDS011;54122;53.538;49.366;2023-09-12T10:03:06;2.80;;;1.80;;
67195;SDS011;54122;53.538;49.366;2023-09-12T10:05:33;1.75;;;1.27;;
67195;SDS011;54122;53.538;49.366;2023-09-12T10:08:03;2.47;;;1.50;;
67195;SDS011;54122;53.538;49.366;2023-09-12T10:10:35;2.53;;;1.42;;
67195;SDS011;54122;53.538;49.366;2023-09-12T10:13:03;1.80;;;1.33;;
67195;SDS011;54122;53.538;49.366;2023-09-12T10:15:30;1.77;;;1.35;;
67195;SDS011;54122;53.538;49.366;2023-09-12T10:18:00;3.58;;;1.67;;
67195;SDS011;54122;53.538;49.366;2023-09-12T10:20:38;1.45;;;1.20;;
67195;SDS011;54122;53.538;49.366;2023-09-12T10:23:23;4.47;;;1.33;;
67195;SDS011;54122;53.538;49.366;2023-09-12T10:26:18;2.28;;;1.13;;
67195;SDS011;54122;53.538;49.366;2023-09-12T10:28:46;3.60;;;1.20;;
67195;SDS011;54122;53.538;49.366;2023-09-12T10:31:13;4.97;;;1.13;;
67195;SDS011;54122;53.538;49.366;2023-09-12T10:33:40;2.42;;;1.30;;
67195;SDS011;54122;53.538;49.366;2023-09-12T10:36:11;1.77;;;1.23;;
67195;SDS011;54122;53.538;49.366;2023-09-12T10:38:42;1.75;;;1.25;;
67195;SDS011;54122;53.538;49.366;2023-09-12T10:41:13;3.50;;;1.10;;
67195;SDS011;54122;53.538;49.366;2023-09-12T10:43:41;1.10;;;0.80;;
67195;SDS011;54122;53.538;49.366;2023-09-12T10:46:12;1.10;;;0.77;;
67195;SDS011;54122;53.538;49.366;2023-09-12T10:48:38;6.25;;;0.70;;
67195;SDS011;54122;53.538;49.366;2023-09-12T10:51:08;1.83;;;0.90;;
67195;SDS011;54122;53.538;49.366;2023-09-12T10:53:36;0.70;;;0.52;;
67195;SDS011;54122;53.538;49.366;2023-09-12T10:59:08;1.10;;;0.70;;
67195;SDS011;54122;53.538;49.366;2023-09-12T11:01:31;1.35;;;0.88;;
67195;SDS011;54122;53.538;49.366;2023-09-12T11:03:58;0.98;;;0.80;;
67195;SDS011;54122;53.538;49.366;2023-09-12T11:06:48;2.22;;;0.80;;
67195;SDS011;54122;53.538;49.366;2023-09-12T11:11:47;3.50;;;0.90;;
67195;SDS011;54122;53.538;49.366;2023-09-12T11:14:15;0.82;;;0.68;;
67195;SDS011;54122;53.538;49.366;2023-09-12T11:19:48;2.75;;;0.98;;
67195;SDS011;54122;53.538;49.366;2023-09-12T11:24:56;1.35;;;0.80;;
67195;SDS011;54122;53.538;49.366;2023-09-12T11:27:43;3.85;;;0.93;;
67195;SDS011;54122;53.538;49.366;2023-09-12T11:30:11;1.40;;;0.70;;
67195;SDS011;54122;53.538;49.366;2023-09-12T11:32:38;0.90;;;0.73;;
67195;SDS011;54122;53.538;49.366;2023-09-12T11:35:07;0.70;;;0.70;;
67195;SDS011;54122;53.538;49.366;2023-09-12T11:37:35;0.80;;;0.70;;
67195;SDS011;54122;53.538;49.366;2023-09-12T11:45:08;1.60;;;1.00;;
67195;SDS011;54122;53.538;49.366;2023-09-12T11:47:39;1.42;;;1.05;;
67195;SDS011;54122;53.538;49.366;2023-09-12T11:50:06;5.30;;;1.02;;
67195;SDS011;54122;53.538;49.366;2023-09-12T11:52:35;2.30;;;1.00;;
67195;SDS011;54122;53.538;49.366;2023-09-12T11:55:05;1.00;;;0.73;;
67195;SDS011;54122;53.538;49.366;2023-09-12T11:57:31;1.83;;;0.80;;
67195;SDS011;54122;53.538;49.366;2023-09-12T11:59:57;1.65;;;0.95;;
67195;SDS011;54122;53.538;49.366;2023-09-12T12:02:33;1.17;;;0.60;;
67195;SDS011;54122;53.538;49.366;2023-09-12T12:04:59;2.20;;;0.88;;
67195;SDS011;54122;53.538;49.366;2023-09-12T12:07:26;2.28;;;0.90;;
67195;SDS011;54122;53.538;49.366;2023-09-12T12:09:54;1.13;;;0.98;;
67195;SDS011;54122;53.538;49.366;2023-09-12T12:12:21;1.70;;;0.88;;
67195;SDS011;54122;53.538;49.366;2023-09-12T12:14:47;0.80;;;0.68;;
67195;SDS011;54122;53.538;49.366;2023-09-12T12:17:13;6.25;;;0.73;;
67195;SDS011;54122;53.538;49.366;2023-09-12T12:19:44;5.38;;;0.90;;
67195;SDS011;54122;53.538;49.366;2023-09-12T12:22:11;1.38;;;1.08;;
67195;SDS011;54122;53.538;49.366;2023-09-12T12:24:38;1.52;;;0.88;;
67195;SDS011;54122;53.538;49.366;2023-09-12T12:27:06;1.50;;;1.00;;
67195;SDS011;54122;53.538;49.366;2023-09-12T12:29:34;0.50;;;0.50;;
67195;SDS011;54122;53.538;49.366;2023-09-12T12:32:02;1.30;;;0.82;;
67195;SDS011;54122;53.538;49.366;2023-09-12T12:34:30;1.00;;;0.80;;
67195;SDS011;54122;53.538;49.366;2023-09-12T12:36:57;15.98;;;0.90;;
67195;SDS011;54122;53.538;49.366;2023-09-12T12:39:23;0.68;;;0.52;;
67195;SDS011;54122;53.538;49.366;2023-09-12T12:41:53;0.88;;;0.60;;
67195;SDS011;54122;53.538;49.366;2023-09-12T12:44:20;1.38;;;0.75;;
67195;SDS011;54122;53.538;49.366;2023-09-12T12:46:48;1.23;;;0.93;;
67195;SDS011;54122;53.538;49.366;2023-09-12T12:49:15;3.33;;;0.90;;
67195;SDS011;54122;53.538;49.366;2023-09-12T12:51:42;1.77;;;1.10;;
67195;SDS011;54122;53.538;49.366;2023-09-12T12:54:09;4.65;;;0.85;;
67195;SDS011;54122;53.538;49.366;2023-09-12T12:56:41;2.03;;;0.77;;
67195;SDS011;54122;53.538;49.366;2023-09-12T12:59:10;8.32;;;0.85;;
67195;SDS011;54122;53.538;49.366;2023-09-12T13:01:37;2.95;;;0.73;;
67195;SDS011;54122;53.538;49.366;2023-09-12T13:04:05;1.63;;;0.85;;
67195;SDS011;54122;53.538;49.366;2023-09-12T13:06:32;1.52;;;0.60;;
67195;SDS011;54122;53.538;49.366;2023-09-12T13:09:03;1.85;;;0.90;;
67195;SDS011;54122;53.538;49.366;2023-09-12T13:11:31;0.68;;;0.52;;
67195;SDS011;54122;53.538;49.366;2023-09-12T13:14:01;1.17;;;0.80;;
67195;SDS011;54122;53.538;49.366;2023-09-12T13:16:29;1.67;;;0.88;;
67195;SDS011;54122;53.538;49.366;2023-09-12T13:18:56;2.17;;;1.13;;
67195;SDS011;54122;53.538;49.366;2023-09-12T13:21:22;3.30;;;1.13;;
67195;SDS011;54122;53.538;49.366;2023-09-12T13:23:48;2.75;;;1.40;;
67195;SDS011;54122;53.538;49.366;2023-09-12T13:26:15;2.00;;;1.50;;
67195;SDS011;54122;53.538;49.366;2023-09-12T13:28:41;2.47;;;1.40;;
67195;SDS011;54122;53.538;49.366;2023-09-12T13:31:08;2.55;;;1.20;;
67195;SDS011;54122;53.538;49.366;2023-09-12T13:33:34;6.13;;;1.77;;
67195;SDS011;54122;53.538;49.366;2023-09-12T13:36:01;1.88;;;1.27;;
67195;SDS011;54122;53.538;49.366;2023-09-12T13:38:27;3.22;;;1.10;;
67195;SDS011;54122;53.538;49.366;2023-09-12T13:40:53;1.30;;;0.93;;
67195;SDS011;54122;53.538;49.366;2023-09-12T13:43:20;1.25;;;0.77;;
67195;SDS011;54122;53.538;49.366;2023-09-12T13:45:46;2.53;;;0.90;;
67195;SDS011;54122;53.538;49.366;2023-09-12T13:48:13;0.98;;;0.80;;
67195;SDS011;54122;53.538;49.366;2023-09-12T13:50:39;2.78;;;0.85;;
67195;SDS011;54122;53.538;49.366;2023-09-12T13:53:06;8.07;;;0.98;;
67195;SDS011;54122;53.538;49.366;2023-09-12T13:55:33;2.53;;;0.90;;
67195;SDS011;54122;53.538;49.366;2023-09-12T13:58:01;2.45;;;0.80;;
67195;SDS011;54122;53.538;49.366;2023-09-12T14:00:33;2.30;;;1.27;;
67195;SDS011;54122;53.538;49.366;2023-09-12T14:02:59;5.15;;;1.40;;
67195;SDS011;54122;53.538;49.366;2023-09-12T14:05:26;1.88;;;1.17;;
67195;SDS011;54122;53.538;49.366;2023-09-12T14:07:52;2.22;;;1.10;;
67195;SDS011;54122;53.538;49.366;2023-09-12T14:10:19;2.20;;;1.20;;
67195;SDS011;54122;53.538;49.366;2023-09-12T14:12:45;0.77;;;0.75;;
67195;SDS011;54122;53.538;49.366;2023-09-12T14:15:11;2.60;;;0.93;;
67195;SDS011;54122;53.538;49.366;2023-09-12T14:17:40;1.65;;;1.15;;
67195;SDS011;54122;53.538;49.366;2023-09-12T14:20:07;1.40;;;1.00;;
67195;SDS011;54122;53.538;49.366;2023-09-12T14:22:34;1.33;;;0.90;;
67195;SDS011;54122;53.538;49.366;2023-09-12T14:25:01;1.38;;;1.08;;
67195;SDS011;54122;53.538;49.366;2023-09-12T14:27:28;0.70;;;0.70;;
67195;SDS011;54122;53.538;49.366;2023-09-12T14:29:54;1.60;;;0.90;;
67195;SDS011;54122;53.538;49.366;2023-09-12T14:32:21;12.43;;;1.08;;
67195;SDS011;54122;53.538;49.366;2023-09-12T14:34:47;1.23;;;0.75;;
67195;SDS011;54122;53.538;49.366;2023-09-12T14:37:14;1.25;;;0.70;;
67195;SDS011;54122;53.538;49.366;2023-09-12T14:39:40;2.08;;;0.95;;
67195;SDS011;54122;53.538;49.366;2023-09-12T14:42:07;0.82;;;0.82;;
67195;SDS011;54122;53.538;49.366;2023-09-12T14:44:37;1.55;;;0.98;;
67195;SDS011;54122;53.538;49.366;2023-09-12T14:47:04;1.35;;;0.75;;
67195;SDS011;54122;53.538;49.366;2023-09-12T14:49:30;3.28;;;1.40;;
67195;SDS011;54122;53.538;49.366;2023-09-12T14:51:56;1.40;;;1.05;;
67195;SDS011;54122;53.538;49.366;2023-09-12T14:54:24;1.23;;;1.13;;
67195;SDS011;54122;53.538;49.366;2023-09-12T14:56:51;2.47;;;0.90;;
67195;SDS011;54122;53.538;49.366;2023-09-12T14:59:17;2.72;;;0.90;;
67195;SDS011;54122;53.538;49.366;2023-09-12T15:01:44;1.75;;;1.10;;
67195;SDS011;54122;53.538;49.366;2023-09-12T15:04:10;3.58;;;2.10;;
67195;SDS011;54122;53.538;49.366;2023-09-12T15:06:38;1.70;;;1.35;;